createdAt,value
2023-02-17T00:00:20.116Z,23.56
2023-02-17T00:00:59.603Z,23.56
2023-02-17T00:01:39.041Z,23.56
2023-02-17T00:02:18.381Z,23.56
2023-02-17T00:02:57.686Z,23.55
2023-02-17T00:03:36.934Z,23.57
2023-02-17T00:04:15.597Z,23.55
2023-02-17T00:04:55.217Z,23.55
2023-02-17T00:05:35.583Z,23.51
2023-02-17T00:06:15.023Z,23.52
2023-02-17T00:06:54.527Z,23.54
2023-02-17T00:07:33.594Z,23.55
2023-02-17T00:08:11.962Z,23.55
2023-02-17T00:08:51.117Z,23.55
2023-02-17T00:09:30.520Z,23.58
2023-02-17T00:10:09.657Z,23.55
2023-02-17T00:10:50.100Z,23.56
2023-02-17T00:11:28.690Z,23.55
2023-02-17T00:12:07.529Z,23.54
2023-02-17T00:12:46.556Z,23.55
2023-02-17T00:13:25.295Z,23.56
2023-02-17T00:14:03.918Z,23.56
2023-02-17T00:14:43.024Z,23.57
2023-02-17T00:15:20.813Z,23.57
2023-02-17T00:16:00.255Z,23.56
2023-02-17T00:16:38.896Z,23.57
2023-02-17T00:17:18.482Z,23.54
2023-02-17T00:17:57.559Z,23.54
2023-02-17T00:18:35.849Z,23.56
2023-02-17T00:19:17.147Z,23.55
2023-02-17T00:19:56.235Z,23.55
2023-02-17T00:20:34.902Z,23.56
2023-02-17T00:21:14.334Z,23.54
2023-02-17T00:21:52.657Z,23.53
2023-02-17T00:22:31.636Z,23.53
2023-02-17T00:23:09.845Z,23.55
2023-02-17T00:23:48.413Z,23.55
2023-02-17T00:24:26.700Z,23.53
2023-02-17T00:25:05.600Z,23.53
2023-02-17T00:25:45.040Z,23.55
2023-02-17T00:26:24.593Z,23.55
2023-02-17T00:27:04.149Z,23.56
2023-02-17T00:27:44.385Z,23.55
2023-02-17T00:28:23.102Z,23.53
2023-02-17T00:29:02.521Z,23.53
2023-02-17T00:29:41.760Z,23.53
2023-02-17T00:30:21.114Z,23.52
2023-02-17T00:31:00.099Z,23.50
2023-02-17T00:31:39.182Z,23.51
2023-02-17T00:32:18.387Z,23.53
2023-02-17T00:32:57.190Z,23.51
2023-02-17T00:33:35.522Z,23.49
2023-02-17T00:34:13.473Z,23.48
2023-02-17T00:34:52.695Z,23.50
2023-02-17T00:35:31.853Z,23.49
2023-02-17T00:36:11.525Z,23.48
2023-02-17T00:36:50.695Z,23.49
2023-02-17T00:37:29.854Z,23.49
2023-02-17T00:38:08.818Z,23.49
2023-02-17T00:38:47.362Z,23.49
2023-02-17T00:39:26.032Z,23.48
2023-02-17T00:40:04.703Z,23.48
2023-02-17T00:40:42.877Z,23.49
2023-02-17T00:41:21.426Z,23.48
2023-02-17T00:41:59.980Z,23.49
2023-02-17T00:42:38.292Z,23.51
2023-02-17T00:43:16.589Z,23.52
2023-02-17T00:43:54.046Z,23.53
2023-02-17T00:44:32.839Z,23.55
2023-02-17T00:45:12.032Z,23.51
2023-02-17T00:45:51.230Z,23.51
2023-02-17T00:46:30.552Z,23.51
2023-02-17T00:47:09.852Z,23.49
2023-02-17T00:47:49.206Z,23.48
2023-02-17T00:48:28.888Z,23.51
2023-02-17T00:49:07.384Z,23.51
2023-02-17T00:49:45.445Z,23.51
2023-02-17T00:50:23.681Z,23.50
2023-02-17T00:51:02.309Z,23.51
2023-02-17T00:51:41.868Z,23.51
2023-02-17T00:52:19.855Z,23.51
2023-02-17T00:52:58.776Z,23.51
2023-02-17T00:53:36.632Z,23.50
2023-02-17T00:54:14.741Z,23.51
2023-02-17T00:54:52.458Z,23.51
2023-02-17T00:55:31.211Z,23.52
2023-02-17T00:56:10.685Z,23.50
2023-02-17T00:56:50.014Z,23.48
2023-02-17T00:57:29.515Z,23.48
2023-02-17T00:58:08.827Z,23.48
2023-02-17T00:58:47.805Z,23.48
2023-02-17T00:59:26.043Z,23.50
2023-02-17T01:00:04.346Z,23.51
2023-02-17T01:00:42.900Z,23.52
2023-02-17T01:01:21.254Z,23.52
2023-02-17T01:02:00.473Z,23.51
2023-02-17T01:02:39.885Z,23.54
2023-02-17T01:03:18.592Z,23.53
2023-02-17T01:03:57.001Z,23.53
2023-02-17T01:04:35.132Z,23.52
2023-02-17T01:05:15.602Z,23.53
2023-02-17T01:05:54.587Z,23.52
2023-02-17T01:06:33.959Z,23.54
2023-02-17T01:07:13.694Z,23.54
2023-02-17T01:07:52.876Z,23.52
2023-02-17T01:08:32.007Z,23.52
2023-02-17T01:09:10.426Z,23.53
2023-02-17T01:09:49.095Z,23.51
2023-02-17T01:10:27.867Z,23.51
2023-02-17T01:11:07.092Z,23.51
2023-02-17T01:11:45.052Z,23.52
2023-02-17T01:12:24.504Z,23.51
2023-02-17T01:13:03.098Z,23.52
2023-02-17T01:13:42.194Z,23.53
2023-02-17T01:14:20.029Z,23.53
2023-02-17T01:14:58.480Z,23.54
2023-02-17T01:15:37.332Z,23.52
2023-02-17T01:16:16.962Z,23.54
2023-02-17T01:16:56.729Z,23.55
2023-02-17T01:17:36.253Z,23.55
2023-02-17T01:18:15.755Z,23.54
2023-02-17T01:18:55.723Z,23.51
2023-02-17T01:19:33.991Z,23.49
2023-02-17T01:20:13.158Z,23.51
2023-02-17T01:20:52.664Z,23.50
2023-02-17T01:21:31.818Z,23.50
2023-02-17T01:22:09.855Z,23.51
2023-02-17T01:22:49.657Z,23.54
2023-02-17T01:23:28.152Z,23.52
2023-02-17T01:24:07.834Z,23.52
2023-02-17T01:24:46.110Z,23.52
2023-02-17T01:25:24.747Z,23.53
2023-02-17T01:26:03.642Z,23.51
2023-02-17T01:26:42.274Z,23.52
2023-02-17T01:27:20.720Z,23.51
2023-02-17T01:27:59.597Z,23.53
2023-02-17T01:28:38.264Z,23.51
2023-02-17T01:29:15.228Z,23.52
2023-02-17T01:29:53.836Z,23.52
2023-02-17T01:30:32.594Z,23.54
2023-02-17T01:31:12.078Z,23.53
2023-02-17T01:31:52.338Z,23.55
2023-02-17T01:32:31.917Z,23.56
2023-02-17T01:33:11.503Z,23.52
2023-02-17T01:33:50.767Z,23.53
2023-02-17T01:34:29.513Z,23.52
2023-02-17T01:35:08.573Z,23.54
2023-02-17T01:35:48.571Z,23.51
2023-02-17T01:36:28.401Z,23.54
2023-02-17T01:37:07.841Z,23.51
2023-02-17T01:37:47.506Z,23.53
2023-02-17T01:38:28.063Z,23.54
2023-02-17T01:39:08.228Z,23.54
2023-02-17T01:39:47.722Z,23.54
2023-02-17T01:40:26.652Z,23.54
2023-02-17T01:41:05.619Z,23.57
2023-02-17T01:41:45.036Z,23.55
2023-02-17T01:42:24.601Z,23.56
2023-02-17T01:43:03.892Z,23.51
2023-02-17T01:43:43.462Z,23.52
2023-02-17T01:44:23.307Z,23.51
2023-02-17T01:45:01.456Z,23.51
2023-02-17T01:45:38.853Z,23.50
2023-02-17T01:46:18.914Z,23.52
2023-02-17T01:46:57.624Z,23.51
2023-02-17T01:47:36.168Z,23.52
2023-02-17T01:48:15.777Z,23.52
2023-02-17T01:48:54.003Z,23.54
2023-02-17T01:49:32.646Z,23.54
2023-02-17T01:50:11.121Z,23.54
2023-02-17T01:50:49.315Z,23.54
2023-02-17T01:51:29.062Z,23.53
2023-02-17T01:52:08.295Z,23.54
2023-02-17T01:52:47.873Z,23.54
2023-02-17T01:53:27.394Z,23.52
2023-02-17T01:54:06.712Z,23.50
2023-02-17T01:54:45.984Z,23.51
2023-02-17T01:55:24.101Z,23.53
2023-02-17T01:56:02.612Z,23.55
2023-02-17T01:56:41.804Z,23.53
2023-02-17T01:57:20.518Z,23.54
2023-02-17T01:58:00.291Z,23.53
2023-02-17T01:58:39.478Z,23.53
2023-02-17T01:59:18.418Z,23.54
2023-02-17T01:59:58.778Z,23.54
2023-02-17T02:00:36.749Z,23.54
2023-02-17T02:01:14.946Z,23.54
2023-02-17T02:01:54.355Z,23.51
2023-02-17T02:02:32.817Z,23.54
2023-02-17T02:03:11.498Z,23.52
2023-02-17T02:03:50.126Z,23.52
2023-02-17T02:04:30.227Z,23.52
2023-02-17T02:05:08.978Z,23.51
2023-02-17T02:05:46.942Z,23.52
2023-02-17T02:06:25.356Z,23.52
2023-02-17T02:07:03.826Z,23.53
2023-02-17T02:07:42.559Z,23.52
2023-02-17T02:08:22.721Z,23.52
2023-02-17T02:09:01.331Z,23.52
2023-02-17T02:09:40.002Z,23.54
2023-02-17T02:10:19.051Z,23.55
2023-02-17T02:10:57.113Z,23.52
2023-02-17T02:11:35.662Z,23.54
2023-02-17T02:12:14.200Z,23.53
2023-02-17T02:12:53.918Z,23.53
2023-02-17T02:13:32.604Z,23.53
2023-02-17T02:14:12.173Z,23.55
2023-02-17T02:14:50.902Z,23.52
2023-02-17T02:15:33.285Z,23.51
2023-02-17T02:16:11.957Z,23.52
2023-02-17T02:16:50.522Z,23.53
2023-02-17T02:17:30.203Z,23.55
2023-02-17T02:18:10.111Z,23.53
2023-02-17T02:18:49.491Z,23.54
2023-02-17T02:19:28.776Z,23.55
2023-02-17T02:20:08.171Z,23.54
2023-02-17T02:20:46.792Z,23.53
2023-02-17T02:21:24.453Z,23.52
2023-02-17T02:22:02.495Z,23.52
2023-02-17T02:22:41.208Z,23.54
2023-02-17T02:23:20.778Z,23.53
2023-02-17T02:23:59.745Z,23.55
2023-02-17T02:24:38.370Z,23.55
2023-02-17T02:25:17.980Z,23.53
2023-02-17T02:25:56.395Z,23.50
2023-02-17T02:26:35.374Z,23.51
2023-02-17T02:27:14.291Z,23.53
2023-02-17T02:27:53.662Z,23.55
2023-02-17T02:28:33.807Z,23.55
2023-02-17T02:29:14.419Z,23.55
2023-02-17T02:29:54.025Z,23.54
2023-02-17T02:30:33.524Z,23.52
2023-02-17T02:31:13.728Z,23.53
2023-02-17T02:31:52.979Z,23.55
2023-02-17T02:32:31.518Z,23.54
2023-02-17T02:33:10.999Z,23.54
2023-02-17T02:33:50.554Z,23.53
2023-02-17T02:34:30.980Z,23.55
2023-02-17T02:35:10.532Z,23.56
2023-02-17T02:35:49.850Z,23.56
2023-02-17T02:36:28.641Z,23.55
2023-02-17T02:37:07.930Z,23.53
2023-02-17T02:37:46.868Z,23.54
2023-02-17T02:38:26.552Z,23.56
2023-02-17T02:39:06.663Z,23.56
2023-02-17T02:39:46.009Z,23.55
2023-02-17T02:40:24.700Z,23.54
2023-02-17T02:41:03.793Z,23.53
2023-02-17T02:41:43.203Z,23.52
2023-02-17T02:42:21.750Z,23.54
2023-02-17T02:43:00.332Z,23.54
2023-02-17T02:43:39.580Z,23.55
2023-02-17T02:44:17.956Z,23.54
2023-02-17T02:44:56.429Z,23.55
2023-02-17T02:45:35.058Z,23.55
2023-02-17T02:46:13.559Z,23.55
2023-02-17T02:46:53.152Z,23.55
2023-02-17T02:47:31.275Z,23.54
2023-02-17T02:48:09.996Z,23.56
2023-02-17T02:48:48.490Z,23.55
2023-02-17T02:49:27.787Z,23.54
2023-02-17T02:50:06.449Z,23.54
2023-02-17T02:50:45.596Z,23.55
2023-02-17T02:51:24.371Z,23.54
2023-02-17T02:52:03.782Z,23.53
2023-02-17T02:52:41.776Z,23.54
2023-02-17T02:53:20.322Z,23.56
2023-02-17T02:53:59.003Z,23.56
2023-02-17T02:54:38.311Z,23.55
2023-02-17T02:55:16.840Z,23.55
2023-02-17T02:55:56.400Z,23.56
2023-02-17T02:56:35.573Z,23.56
2023-02-17T02:57:15.053Z,23.58
2023-02-17T02:57:53.378Z,23.55
2023-02-17T02:58:32.524Z,23.56
2023-02-17T02:59:11.792Z,23.56
2023-02-17T02:59:51.077Z,23.56
2023-02-17T03:00:29.789Z,23.54
2023-02-17T03:01:09.274Z,23.54
2023-02-17T03:01:47.496Z,23.56
2023-02-17T03:02:26.834Z,23.54
2023-02-17T03:03:04.191Z,23.54
2023-02-17T03:03:42.183Z,23.54
2023-02-17T03:04:21.184Z,23.56
2023-02-17T03:05:00.619Z,23.54
2023-02-17T03:05:39.207Z,23.56
2023-02-17T03:06:18.235Z,23.56
2023-02-17T03:06:57.529Z,23.57
2023-02-17T03:07:36.738Z,23.57
2023-02-17T03:08:15.190Z,23.57
2023-02-17T03:08:53.836Z,23.57
2023-02-17T03:09:32.747Z,23.57
2023-02-17T03:10:10.788Z,23.56
2023-02-17T03:10:49.300Z,23.56
2023-02-17T03:11:28.680Z,23.55
2023-02-17T03:12:08.141Z,23.55
2023-02-17T03:12:47.431Z,23.57
2023-02-17T03:13:26.390Z,23.58
2023-02-17T03:14:05.343Z,23.61
2023-02-17T03:14:44.616Z,23.62
2023-02-17T03:15:23.177Z,23.58
2023-02-17T03:16:01.812Z,23.56
2023-02-17T03:16:40.357Z,23.56
2023-02-17T03:17:18.965Z,23.56
2023-02-17T03:17:57.489Z,23.55
2023-02-17T03:18:35.929Z,23.58
2023-02-17T03:19:14.408Z,23.56
2023-02-17T03:19:53.031Z,23.56
2023-02-17T03:20:30.538Z,23.54
2023-02-17T03:21:08.847Z,23.55
2023-02-17T03:21:48.028Z,23.56
2023-02-17T03:22:31.116Z,23.56
2023-02-17T03:23:09.664Z,23.55
2023-02-17T03:23:48.804Z,23.55
2023-02-17T03:24:28.188Z,23.56
2023-02-17T03:25:08.116Z,23.54
2023-02-17T03:25:47.101Z,23.56
2023-02-17T03:26:25.787Z,23.53
2023-02-17T03:27:06.167Z,23.55
2023-02-17T03:27:44.666Z,23.54
2023-02-17T03:28:23.894Z,23.55
2023-02-17T03:29:02.634Z,23.56
2023-02-17T03:29:42.298Z,23.57
2023-02-17T03:30:21.384Z,23.59
2023-02-17T03:31:00.461Z,23.57
2023-02-17T03:31:39.182Z,23.57
2023-02-17T03:32:18.975Z,23.56
2023-02-17T03:32:57.688Z,23.56
2023-02-17T03:33:37.485Z,23.54
2023-02-17T03:34:16.333Z,23.56
2023-02-17T03:34:56.390Z,23.56
2023-02-17T03:35:34.392Z,23.51
2023-02-17T03:36:12.855Z,23.55
2023-02-17T03:36:50.872Z,23.54
2023-02-17T03:37:30.380Z,23.55
2023-02-17T03:38:09.884Z,23.55
2023-02-17T03:38:50.215Z,23.56
2023-02-17T03:39:29.329Z,23.56
2023-02-17T03:40:09.933Z,23.58
2023-02-17T03:40:48.685Z,23.57
2023-02-17T03:41:27.523Z,23.56
2023-02-17T03:42:07.038Z,23.55
2023-02-17T03:42:47.595Z,23.57
2023-02-17T03:43:28.161Z,23.58
2023-02-17T03:44:07.163Z,23.60
2023-02-17T03:44:49.982Z,23.58
2023-02-17T03:45:29.407Z,23.57
2023-02-17T03:46:09.567Z,23.57
2023-02-17T03:46:47.282Z,23.57
2023-02-17T03:47:26.131Z,23.59
2023-02-17T03:48:04.468Z,23.58
2023-02-17T03:48:43.857Z,23.59
2023-02-17T03:49:22.840Z,23.57
2023-02-17T03:50:02.522Z,23.58
2023-02-17T03:50:42.005Z,23.59
2023-02-17T03:51:21.591Z,23.59
2023-02-17T03:52:00.970Z,23.60
2023-02-17T03:52:39.371Z,23.59
2023-02-17T03:53:18.897Z,23.59
2023-02-17T03:53:57.870Z,23.59
2023-02-17T03:54:37.689Z,23.59
2023-02-17T03:55:18.207Z,23.60
2023-02-17T03:55:57.849Z,23.60
2023-02-17T03:56:37.140Z,23.61
2023-02-17T03:57:15.864Z,23.59
2023-02-17T03:57:54.377Z,23.60
2023-02-17T03:58:34.233Z,23.61
2023-02-17T03:59:14.460Z,23.60
2023-02-17T03:59:53.172Z,23.60
2023-02-17T04:00:33.163Z,23.59
2023-02-17T04:01:11.678Z,23.58
2023-02-17T04:01:50.848Z,23.58
2023-02-17T04:02:29.733Z,23.58
2023-02-17T04:03:09.050Z,23.57
2023-02-17T04:03:48.305Z,23.55
2023-02-17T04:04:27.115Z,23.57
2023-02-17T04:05:06.275Z,23.56
2023-02-17T04:05:45.097Z,23.58
2023-02-17T04:06:24.086Z,23.59
2023-02-17T04:07:04.632Z,23.59
2023-02-17T04:07:43.175Z,23.56
2023-02-17T04:08:21.724Z,23.56
2023-02-17T04:09:01.485Z,23.55
2023-02-17T04:09:40.954Z,23.55
2023-02-17T04:10:20.284Z,23.54
2023-02-17T04:10:59.921Z,23.56
2023-02-17T04:11:39.048Z,23.56
2023-02-17T04:12:17.804Z,23.58
2023-02-17T04:12:57.090Z,23.60
2023-02-17T04:13:38.570Z,23.59
2023-02-17T04:14:17.755Z,23.58
2023-02-17T04:14:56.604Z,23.59
2023-02-17T04:15:35.321Z,23.58
2023-02-17T04:16:14.584Z,23.56
2023-02-17T04:16:53.757Z,23.58
2023-02-17T04:17:34.052Z,23.57
2023-02-17T04:18:13.535Z,23.58
2023-02-17T04:18:51.787Z,23.56
2023-02-17T04:19:31.962Z,23.54
2023-02-17T04:20:12.258Z,23.56
2023-02-17T04:20:51.637Z,23.58
2023-02-17T04:21:30.804Z,23.58
2023-02-17T04:22:09.741Z,23.62
2023-02-17T04:22:48.798Z,23.58
2023-02-17T04:23:27.248Z,23.61
2023-02-17T04:24:05.847Z,23.57
2023-02-17T04:24:45.009Z,23.58
2023-02-17T04:25:23.842Z,23.57
2023-02-17T04:26:01.291Z,23.55
2023-02-17T04:26:39.648Z,23.56
2023-02-17T04:27:18.688Z,23.56
2023-02-17T04:27:58.260Z,23.56
2023-02-17T04:28:38.682Z,23.57
2023-02-17T04:29:18.017Z,23.56
2023-02-17T04:29:57.484Z,23.56
2023-02-17T04:30:37.376Z,23.59
2023-02-17T04:31:15.898Z,23.55
2023-02-17T04:31:54.922Z,23.57
2023-02-17T04:32:35.293Z,23.58
2023-02-17T04:33:15.697Z,23.58
2023-02-17T04:33:55.185Z,23.58
2023-02-17T04:34:34.521Z,23.60
2023-02-17T04:35:14.068Z,23.60
2023-02-17T04:35:52.182Z,23.62
2023-02-17T04:36:30.857Z,23.59
2023-02-17T04:37:10.284Z,23.61
2023-02-17T04:37:49.764Z,23.59
2023-02-17T04:38:29.793Z,23.60
2023-02-17T04:39:09.425Z,23.59
2023-02-17T04:39:48.464Z,23.58
2023-02-17T04:40:27.153Z,23.59
2023-02-17T04:41:06.412Z,23.57
2023-02-17T04:41:45.229Z,23.56
2023-02-17T04:42:25.128Z,23.58
2023-02-17T04:43:04.981Z,23.60
2023-02-17T04:43:44.370Z,23.57
2023-02-17T04:44:23.940Z,23.59
2023-02-17T04:45:03.296Z,23.60
2023-02-17T04:45:42.815Z,23.57
2023-02-17T04:46:20.842Z,23.58
2023-02-17T04:46:58.968Z,23.59
2023-02-17T04:47:37.474Z,23.58
2023-02-17T04:48:16.625Z,23.58
2023-02-17T04:48:55.575Z,23.58
2023-02-17T04:49:34.178Z,23.56
2023-02-17T04:50:12.675Z,23.58
2023-02-17T04:50:51.175Z,23.58
2023-02-17T04:51:29.155Z,23.60
2023-02-17T04:52:08.062Z,23.59
2023-02-17T04:52:47.295Z,23.57
2023-02-17T04:53:26.697Z,23.55
2023-02-17T04:54:06.238Z,23.57
2023-02-17T04:54:45.182Z,23.59
2023-02-17T04:55:25.171Z,23.58
2023-02-17T04:56:04.470Z,23.62
2023-02-17T04:56:43.258Z,23.59
2023-02-17T04:57:21.729Z,23.59
2023-02-17T04:58:01.497Z,23.58
2023-02-17T04:58:40.690Z,23.61
2023-02-17T04:59:19.445Z,23.62
2023-02-17T04:59:59.548Z,23.62
2023-02-17T05:00:38.144Z,23.62
2023-02-17T05:01:16.993Z,23.61
2023-02-17T05:01:55.857Z,23.60
2023-02-17T05:02:34.389Z,23.59
2023-02-17T05:03:13.657Z,23.61
2023-02-17T05:03:52.615Z,23.61
2023-02-17T05:04:31.419Z,23.62
2023-02-17T05:05:10.531Z,23.60
2023-02-17T05:05:49.358Z,23.60
2023-02-17T05:06:27.941Z,23.60
2023-02-17T05:07:06.802Z,23.60
2023-02-17T05:07:45.656Z,23.61
2023-02-17T05:08:25.362Z,23.59
2023-02-17T05:09:05.530Z,23.59
2023-02-17T05:09:44.809Z,23.58
2023-02-17T05:10:24.333Z,23.57
2023-02-17T05:11:03.641Z,23.59
2023-02-17T05:11:43.006Z,23.63
2023-02-17T05:12:20.807Z,23.62
2023-02-17T05:12:59.613Z,23.60
2023-02-17T05:13:37.731Z,23.61
2023-02-17T05:14:16.974Z,23.62
2023-02-17T05:14:55.953Z,23.61
2023-02-17T05:15:36.312Z,23.62
2023-02-17T05:16:15.432Z,23.60
2023-02-17T05:16:54.997Z,23.62
2023-02-17T05:17:33.671Z,23.60
2023-02-17T05:18:12.253Z,23.60
2023-02-17T05:18:51.794Z,23.59
2023-02-17T05:19:31.380Z,23.58
2023-02-17T05:20:11.667Z,23.59
2023-02-17T05:20:50.493Z,23.59
2023-02-17T05:21:30.173Z,23.57
2023-02-17T05:22:08.996Z,23.57
2023-02-17T05:22:47.803Z,23.60
2023-02-17T05:23:25.737Z,23.63
2023-02-17T05:24:05.223Z,23.61
2023-02-17T05:24:44.513Z,23.62
2023-02-17T05:25:23.634Z,23.62
2023-02-17T05:26:02.996Z,23.58
2023-02-17T05:26:42.490Z,23.61
2023-02-17T05:27:22.312Z,23.59
2023-02-17T05:28:01.395Z,23.57
2023-02-17T05:28:40.583Z,23.58
2023-02-17T05:29:20.918Z,23.58
2023-02-17T05:30:00.799Z,23.58
2023-02-17T05:30:40.926Z,23.59
2023-02-17T05:31:19.988Z,23.60
2023-02-17T05:31:59.346Z,23.58
2023-02-17T05:32:38.427Z,23.58
2023-02-17T05:33:17.305Z,23.60
2023-02-17T05:33:55.856Z,23.59
2023-02-17T05:34:35.779Z,23.58
2023-02-17T05:35:15.507Z,23.58
2023-02-17T05:35:55.219Z,23.60
2023-02-17T05:36:35.032Z,23.62
2023-02-17T05:37:13.761Z,23.59
2023-02-17T05:37:53.102Z,23.62
2023-02-17T05:38:31.181Z,23.59
2023-02-17T05:39:09.778Z,23.61
2023-02-17T05:39:48.095Z,23.59
2023-02-17T05:40:28.128Z,23.58
2023-02-17T05:41:06.817Z,23.58
2023-02-17T05:41:46.149Z,23.59
2023-02-17T05:42:25.194Z,23.62
2023-02-17T05:43:04.449Z,23.59
2023-02-17T05:43:42.234Z,23.61
2023-02-17T05:44:20.682Z,23.60
2023-02-17T05:44:59.487Z,23.61
2023-02-17T05:45:39.062Z,23.60
2023-02-17T05:46:18.315Z,23.60
2023-02-17T05:46:57.648Z,23.59
2023-02-17T05:47:37.086Z,23.61
2023-02-17T05:48:16.890Z,23.58
2023-02-17T05:48:55.709Z,23.59
2023-02-17T05:49:34.177Z,23.60
2023-02-17T05:50:14.295Z,23.60
2023-02-17T05:50:53.564Z,23.59
2023-02-17T05:51:32.849Z,23.61
2023-02-17T05:52:13.240Z,23.58
2023-02-17T05:52:52.581Z,23.58
2023-02-17T05:53:32.246Z,23.59
2023-02-17T05:54:11.994Z,23.59
2023-02-17T05:54:50.806Z,23.56
2023-02-17T05:55:29.428Z,23.59
2023-02-17T05:56:08.869Z,23.54
2023-02-17T05:56:47.948Z,23.58
2023-02-17T05:57:25.510Z,23.56
2023-02-17T05:58:04.514Z,23.57
2023-02-17T05:58:43.770Z,23.56
2023-02-17T05:59:22.765Z,23.59
2023-02-17T06:00:03.170Z,23.62
2023-02-17T06:00:42.513Z,23.62
2023-02-17T06:01:22.583Z,23.61
2023-02-17T06:02:00.997Z,23.60
2023-02-17T06:02:40.012Z,23.59
2023-02-17T06:03:19.376Z,23.62
2023-02-17T06:03:58.536Z,23.55
2023-02-17T06:04:38.416Z,23.61
2023-02-17T06:05:17.795Z,23.59
2023-02-17T06:05:56.948Z,23.59
2023-02-17T06:06:36.052Z,23.61
2023-02-17T06:07:15.458Z,23.61
2023-02-17T06:07:54.087Z,23.63
2023-02-17T06:08:33.505Z,23.62
2023-02-17T06:09:12.574Z,23.63
2023-02-17T06:09:51.758Z,23.62
2023-02-17T06:10:31.234Z,23.60
2023-02-17T06:11:10.878Z,23.59
2023-02-17T06:11:50.462Z,23.60
2023-02-17T06:12:28.341Z,23.61
2023-02-17T06:13:06.753Z,23.60
2023-02-17T06:13:45.399Z,23.64
2023-02-17T06:14:24.648Z,23.60
2023-02-17T06:15:02.964Z,23.62
2023-02-17T06:15:42.701Z,23.64
2023-02-17T06:16:21.828Z,23.62
2023-02-17T06:17:01.267Z,23.59
2023-02-17T06:17:40.267Z,23.61
2023-02-17T06:18:18.956Z,23.60
2023-02-17T06:18:58.524Z,23.62
2023-02-17T06:19:39.035Z,23.64
2023-02-17T06:20:19.224Z,23.63
2023-02-17T06:20:58.899Z,23.61
2023-02-17T06:21:38.132Z,23.62
2023-02-17T06:22:18.677Z,23.62
2023-02-17T06:22:56.272Z,23.61
2023-02-17T06:23:34.764Z,23.63
2023-02-17T06:24:14.434Z,23.62
2023-02-17T06:24:53.584Z,23.61
2023-02-17T06:25:32.917Z,23.61
2023-02-17T06:26:12.434Z,23.61
2023-02-17T06:26:51.608Z,23.57
2023-02-17T06:27:30.756Z,23.58
2023-02-17T06:28:09.942Z,23.61
2023-02-17T06:28:48.644Z,23.56
2023-02-17T06:29:28.011Z,23.57
2023-02-17T06:30:07.313Z,23.58
2023-02-17T06:30:47.064Z,23.58
2023-02-17T06:31:26.348Z,23.57
2023-02-17T06:32:05.955Z,23.59
2023-02-17T06:32:45.792Z,23.59
2023-02-17T06:33:24.909Z,23.57
2023-02-17T06:34:05.421Z,23.56
2023-02-17T06:34:43.775Z,23.57
2023-02-17T06:35:22.940Z,23.58
2023-02-17T06:36:02.493Z,23.57
2023-02-17T06:36:42.071Z,23.58
2023-02-17T06:37:21.507Z,23.57
2023-02-17T06:38:00.189Z,23.59
2023-02-17T06:38:39.003Z,23.58
2023-02-17T06:39:17.360Z,23.60
2023-02-17T06:39:57.080Z,23.62
2023-02-17T06:40:36.257Z,23.58
2023-02-17T06:41:14.785Z,23.60
2023-02-17T06:41:53.818Z,23.61
2023-02-17T06:42:32.715Z,23.58
2023-02-17T06:43:12.500Z,23.56
2023-02-17T06:43:50.834Z,23.58
2023-02-17T06:44:29.477Z,23.58
2023-02-17T06:45:09.485Z,23.60
2023-02-17T06:45:49.620Z,23.58
2023-02-17T06:46:28.859Z,23.58
2023-02-17T06:47:08.600Z,23.60
2023-02-17T06:47:48.214Z,23.60
2023-02-17T06:48:26.526Z,23.59
2023-02-17T06:49:05.550Z,23.60
2023-02-17T06:49:44.902Z,23.57
2023-02-17T06:50:23.660Z,23.59
2023-02-17T06:51:03.071Z,23.56
2023-02-17T06:51:42.041Z,23.59
2023-02-17T06:52:20.973Z,23.61
2023-02-17T06:52:58.693Z,23.62
2023-02-17T06:53:37.090Z,23.60
2023-02-17T06:54:16.575Z,23.57
2023-02-17T06:54:54.933Z,23.56
2023-02-17T06:55:32.809Z,23.56
2023-02-17T06:56:12.246Z,23.60
2023-02-17T06:56:50.911Z,23.58
2023-02-17T06:57:29.551Z,23.57
2023-02-17T06:58:08.771Z,23.57
2023-02-17T06:58:47.474Z,23.59
2023-02-17T06:59:26.851Z,23.59
2023-02-17T07:00:08.840Z,23.60
2023-02-17T07:00:47.835Z,23.59
2023-02-17T07:01:26.866Z,23.61
2023-02-17T07:02:07.197Z,23.59
2023-02-17T07:02:41.794Z,23.60
2023-02-17T07:03:21.136Z,23.60
2023-02-17T07:03:59.512Z,23.57
2023-02-17T07:04:38.716Z,23.58
2023-02-17T07:05:17.644Z,23.57
2023-02-17T07:05:56.236Z,23.57
2023-02-17T07:06:35.061Z,23.58
2023-02-17T07:07:14.405Z,23.59
2023-02-17T07:07:52.867Z,23.61
2023-02-17T07:08:32.450Z,23.63
2023-02-17T07:09:11.005Z,23.60
2023-02-17T07:09:50.240Z,23.61
2023-02-17T07:10:29.250Z,23.62
2023-02-17T07:11:08.413Z,23.63
2023-02-17T07:11:47.709Z,23.63
2023-02-17T07:12:26.765Z,23.63
2023-02-17T07:13:04.652Z,23.61
2023-02-17T07:13:43.200Z,23.62
2023-02-17T07:14:23.448Z,23.61
2023-02-17T07:15:02.053Z,23.61
2023-02-17T07:15:41.029Z,23.60
2023-02-17T07:16:20.184Z,23.62
2023-02-17T07:16:58.009Z,23.63
2023-02-17T07:17:37.380Z,23.62
2023-02-17T07:18:16.900Z,23.61
2023-02-17T07:18:55.230Z,23.59
2023-02-17T07:19:34.479Z,23.59
2023-02-17T07:20:13.625Z,23.58
2023-02-17T07:20:52.551Z,23.59
2023-02-17T07:21:32.295Z,23.59
2023-02-17T07:22:11.162Z,23.57
2023-02-17T07:22:50.162Z,23.57
2023-02-17T07:23:28.864Z,23.60
2023-02-17T07:24:07.459Z,23.60
2023-02-17T07:24:46.842Z,23.61
2023-02-17T07:25:25.508Z,23.60
2023-02-17T07:26:05.262Z,23.61
2023-02-17T07:26:44.041Z,23.61
2023-02-17T07:27:23.799Z,23.60
2023-02-17T07:28:03.042Z,23.57
2023-02-17T07:28:41.914Z,23.61
2023-02-17T07:29:20.505Z,23.61
2023-02-17T07:30:00.128Z,23.62
2023-02-17T07:30:39.774Z,23.56
2023-02-17T07:31:20.495Z,23.58
2023-02-17T07:32:00.324Z,23.60
2023-02-17T07:32:39.929Z,23.59
2023-02-17T07:33:18.884Z,23.62
2023-02-17T07:33:57.492Z,23.62
2023-02-17T07:34:36.433Z,23.62
2023-02-17T07:35:16.671Z,23.62
2023-02-17T07:35:55.389Z,23.60
2023-02-17T07:36:34.195Z,23.62
2023-02-17T07:37:13.180Z,23.62
2023-02-17T07:37:51.926Z,23.63
2023-02-17T07:38:30.836Z,23.62
2023-02-17T07:39:09.228Z,23.59
2023-02-17T07:39:48.600Z,23.60
2023-02-17T07:40:27.491Z,23.59
2023-02-17T07:41:06.829Z,23.61
2023-02-17T07:41:45.786Z,23.60
2023-02-17T07:42:25.555Z,23.59
2023-02-17T07:43:03.417Z,23.61
2023-02-17T07:43:40.629Z,23.61
2023-02-17T07:44:19.279Z,23.61
2023-02-17T07:44:57.861Z,23.63
2023-02-17T07:45:36.667Z,23.63
2023-02-17T07:46:18.630Z,23.63
2023-02-17T07:46:57.182Z,23.63
2023-02-17T07:47:39.063Z,23.61
2023-02-17T07:48:18.197Z,23.60
2023-02-17T07:48:56.148Z,23.59
2023-02-17T07:49:34.596Z,23.60
2023-02-17T07:50:14.197Z,23.59
2023-02-17T07:50:52.726Z,23.58
2023-02-17T07:51:31.533Z,23.61
2023-02-17T07:52:10.627Z,23.59
2023-02-17T07:52:49.851Z,23.61
2023-02-17T07:53:29.408Z,23.60
2023-02-17T07:54:08.952Z,23.62
2023-02-17T07:54:47.631Z,23.61
2023-02-17T07:55:27.114Z,23.61
2023-02-17T07:56:06.834Z,23.60
2023-02-17T07:56:46.937Z,23.60
2023-02-17T07:57:26.699Z,23.60
2023-02-17T07:58:05.317Z,23.61
2023-02-17T07:58:44.335Z,23.58
2023-02-17T07:59:23.159Z,23.58
2023-02-17T08:00:00.860Z,23.59
2023-02-17T08:00:40.294Z,23.58
2023-02-17T08:01:19.576Z,23.58
2023-02-17T08:01:58.301Z,23.60
2023-02-17T08:02:38.001Z,23.60
2023-02-17T08:03:17.054Z,23.60
2023-02-17T08:03:57.400Z,23.61
2023-02-17T08:04:35.937Z,23.60
2023-02-17T08:05:14.562Z,23.61
2023-02-17T08:05:52.991Z,23.60
2023-02-17T08:06:32.341Z,23.60
2023-02-17T08:07:11.329Z,23.60
2023-02-17T08:07:51.742Z,23.59
2023-02-17T08:08:30.436Z,23.60
2023-02-17T08:09:09.031Z,23.61
2023-02-17T08:09:47.864Z,23.61
2023-02-17T08:10:26.352Z,23.58
2023-02-17T08:11:05.408Z,23.58
2023-02-17T08:11:46.037Z,23.60
2023-02-17T08:12:24.326Z,23.61
2023-02-17T08:13:03.282Z,23.62
2023-02-17T08:13:43.744Z,23.61
2023-02-17T08:14:23.313Z,23.61
2023-02-17T08:15:02.292Z,23.62
2023-02-17T08:15:41.075Z,23.61
2023-02-17T08:16:20.437Z,23.61
2023-02-17T08:16:59.702Z,23.60
2023-02-17T08:17:38.860Z,23.60
2023-02-17T08:18:17.297Z,23.58
2023-02-17T08:18:56.518Z,23.58
2023-02-17T08:19:47.482Z,23.59
2023-02-17T08:20:25.437Z,23.59
2023-02-17T08:21:05.388Z,23.58
2023-02-17T08:21:44.437Z,23.59
2023-02-17T08:22:22.872Z,23.59
2023-02-17T08:23:01.319Z,23.61
2023-02-17T08:23:40.720Z,23.61